sensor_id;sensor_type;location;lat;lon;timestamp;temperature;humidity
25342;DHT22;13298;48.792;9.154;2024-02-21T00:02:06;5.70;99.90
25342;DHT22;13298;48.792;9.154;2024-02-21T00:04:32;5.60;99.90
25342;DHT22;13298;48.792;9.154;2024-02-21T00:06:58;5.60;99.90
25342;DHT22;13298;48.792;9.154;2024-02-21T00:09:24;5.70;99.90
25342;DHT22;13298;48.792;9.154;2024-02-21T00:11:49;5.70;99.90
25342;DHT22;13298;48.792;9.154;2024-02-21T00:14:15;5.70;99.90
25342;DHT22;13298;48.792;9.154;2024-02-21T00:16:41;5.80;99.90
25342;DHT22;13298;48.792;9.154;2024-02-21T00:19:07;5.80;99.90
25342;DHT22;13298;48.792;9.154;2024-02-21T00:21:33;5.80;99.90
25342;DHT22;13298;48.792;9.154;2024-02-21T00:23:58;5.90;99.90
25342;DHT22;13298;48.792;9.154;2024-02-21T00:26:24;5.90;99.90
25342;DHT22;13298;48.792;9.154;2024-02-21T00:28:51;5.90;99.90
25342;DHT22;13298;48.792;9.154;2024-02-21T00:31:16;6.00;99.90
25342;DHT22;13298;48.792;9.154;2024-02-21T00:33:42;6.00;99.90
25342;DHT22;13298;48.792;9.154;2024-02-21T00:36:08;6.00;99.90
25342;DHT22;13298;48.792;9.154;2024-02-21T00:38:33;6.00;99.90
25342;DHT22;13298;48.792;9.154;2024-02-21T00:40:59;6.00;99.90
25342;DHT22;13298;48.792;9.154;2024-02-21T00:43:25;6.10;99.90
25342;DHT22;13298;48.792;9.154;2024-02-21T00:45:51;6.10;99.90
25342;DHT22;13298;48.792;9.154;2024-02-21T00:48:16;6.10;99.90
25342;DHT22;13298;48.792;9.154;2024-02-21T00:50:42;6.10;99.90
25342;DHT22;13298;48.792;9.154;2024-02-21T00:53:08;6.10;99.90
25342;DHT22;13298;48.792;9.154;2024-02-21T00:55:35;6.10;99.90
25342;DHT22;13298;48.792;9.154;2024-02-21T00:58:00;6.10;99.90
25342;DHT22;13298;48.792;9.154;2024-02-21T01:00:26;6.10;99.90
25342;DHT22;13298;48.792;9.154;2024-02-21T01:02:52;6.00;99.90
25342;DHT22;13298;48.792;9.154;2024-02-21T01:05:17;6.10;99.90
25342;DHT22;13298;48.792;9.154;2024-02-21T01:07:44;6.00;99.90
25342;DHT22;13298;48.792;9.154;2024-02-21T01:10:10;6.00;99.90
25342;DHT22;13298;48.792;9.154;2024-02-21T01:12:36;6.00;99.90
25342;DHT22;13298;48.792;9.154;2024-02-21T01:15:02;6.00;99.90
25342;DHT22;13298;48.792;9.154;2024-02-21T01:17:28;5.90;99.90
25342;DHT22;13298;48.792;9.154;2024-02-21T01:19:54;5.90;99.90
25342;DHT22;13298;48.792;9.154;2024-02-21T01:22:19;6.00;99.90
25342;DHT22;13298;48.792;9.154;2024-02-21T01:24:45;6.00;99.90
25342;DHT22;13298;48.792;9.154;2024-02-21T01:27:11;6.00;99.90
25342;DHT22;13298;48.792;9.154;2024-02-21T01:29:37;6.00;99.90
25342;DHT22;13298;48.792;9.154;2024-02-21T01:32:02;6.00;99.90
25342;DHT22;13298;48.792;9.154;2024-02-21T01:34:28;6.00;99.90
25342;DHT22;13298;48.792;9.154;2024-02-21T01:36:54;6.00;99.90
25342;DHT22;13298;48.792;9.154;2024-02-21T01:39:19;5.90;99.90
25342;DHT22;13298;48.792;9.154;2024-02-21T01:41:45;6.00;99.90
25342;DHT22;13298;48.792;9.154;2024-02-21T01:44:11;5.90;99.90
25342;DHT22;13298;48.792;9.154;2024-02-21T01:46:36;5.90;99.90
25342;DHT22;13298;48.792;9.154;2024-02-21T01:49:02;6.00;99.90
25342;DHT22;13298;48.792;9.154;2024-02-21T01:51:30;6.00;99.90
25342;DHT22;13298;48.792;9.154;2024-02-21T01:53:56;6.00;99.90
25342;DHT22;13298;48.792;9.154;2024-02-21T01:56:23;5.90;99.90
25342;DHT22;13298;48.792;9.154;2024-02-21T01:58:51;5.90;99.90
25342;DHT22;13298;48.792;9.154;2024-02-21T02:01:17;5.90;99.90
25342;DHT22;13298;48.792;9.154;2024-02-21T02:03:45;5.90;99.90
25342;DHT22;13298;48.792;9.154;2024-02-21T02:06:11;5.90;99.90
25342;DHT22;13298;48.792;9.154;2024-02-21T02:08:36;6.00;99.90
25342;DHT22;13298;48.792;9.154;2024-02-21T02:11:03;6.00;99.90
25342;DHT22;13298;48.792;9.154;2024-02-21T02:13:28;6.00;99.90
25342;DHT22;13298;48.792;9.154;2024-02-21T02:15:54;6.00;99.90
25342;DHT22;13298;48.792;9.154;2024-02-21T02:18:20;6.00;99.90
25342;DHT22;13298;48.792;9.154;2024-02-21T02:20:47;6.00;99.90
25342;DHT22;13298;48.792;9.154;2024-02-21T02:23:29;6.00;99.90
25342;DHT22;13298;48.792;9.154;2024-02-21T02:25:57;6.00;99.90
25342;DHT22;13298;48.792;9.154;2024-02-21T02:28:23;6.10;99.90
25342;DHT22;13298;48.792;9.154;2024-02-21T02:30:49;6.10;99.90
25342;DHT22;13298;48.792;9.154;2024-02-21T02:33:15;6.10;99.90
25342;DHT22;13298;48.792;9.154;2024-02-21T02:35:43;6.10;99.90
25342;DHT22;13298;48.792;9.154;2024-02-21T02:38:09;6.10;99.90
25342;DHT22;13298;48.792;9.154;2024-02-21T02:40:35;6.10;99.90
25342;DHT22;13298;48.792;9.154;2024-02-21T02:43:01;6.10;99.90
25342;DHT22;13298;48.792;9.154;2024-02-21T02:45:27;6.20;99.90
25342;DHT22;13298;48.792;9.154;2024-02-21T02:47:53;6.20;99.90
25342;DHT22;13298;48.792;9.154;2024-02-21T02:50:19;6.20;99.90
25342;DHT22;13298;48.792;9.154;2024-02-21T02:52:45;6.20;99.90
25342;DHT22;13298;48.792;9.154;2024-02-21T02:55:11;6.20;99.90
25342;DHT22;13298;48.792;9.154;2024-02-21T02:57:37;6.30;99.90
25342;DHT22;13298;48.792;9.154;2024-02-21T03:00:03;6.20;99.90
25342;DHT22;13298;48.792;9.154;2024-02-21T03:02:30;6.20;99.90
25342;DHT22;13298;48.792;9.154;2024-02-21T03:04:56;6.20;99.90
25342;DHT22;13298;48.792;9.154;2024-02-21T03:07:23;6.20;99.90
25342;DHT22;13298;48.792;9.154;2024-02-21T03:09:50;6.20;99.90
25342;DHT22;13298;48.792;9.154;2024-02-21T03:12:15;6.10;99.90
25342;DHT22;13298;48.792;9.154;2024-02-21T03:14:52;6.00;99.90
25342;DHT22;13298;48.792;9.154;2024-02-21T03:17:18;6.00;99.90
25342;DHT22;13298;48.792;9.154;2024-02-21T03:19:44;5.90;99.90
25342;DHT22;13298;48.792;9.154;2024-02-21T03:22:09;5.90;99.90
25342;DHT22;13298;48.792;9.154;2024-02-21T03:24:35;5.90;99.90
25342;DHT22;13298;48.792;9.154;2024-02-21T03:27:01;5.80;99.90
25342;DHT22;13298;48.792;9.154;2024-02-21T03:29:26;5.70;99.90
25342;DHT22;13298;48.792;9.154;2024-02-21T03:31:52;5.70;99.90
25342;DHT22;13298;48.792;9.154;2024-02-21T03:34:18;5.60;99.90
25342;DHT22;13298;48.792;9.154;2024-02-21T03:36:43;5.60;99.90
25342;DHT22;13298;48.792;9.154;2024-02-21T03:39:09;5.50;99.90
25342;DHT22;13298;48.792;9.154;2024-02-21T03:41:35;5.50;99.90
25342;DHT22;13298;48.792;9.154;2024-02-21T03:44:01;5.50;99.90
25342;DHT22;13298;48.792;9.154;2024-02-21T03:46:27;5.50;99.90
25342;DHT22;13298;48.792;9.154;2024-02-21T03:48:53;5.50;99.90
25342;DHT22;13298;48.792;9.154;2024-02-21T03:51:19;5.50;99.90
25342;DHT22;13298;48.792;9.154;2024-02-21T03:53:44;5.50;99.90
25342;DHT22;13298;48.792;9.154;2024-02-21T03:56:10;5.50;99.90
25342;DHT22;13298;48.792;9.154;2024-02-21T03:58:36;5.50;99.90
25342;DHT22;13298;48.792;9.154;2024-02-21T04:01:02;5.50;99.90
25342;DHT22;13298;48.792;9.154;2024-02-21T04:03:28;5.50;99.90
25342;DHT22;13298;48.792;9.154;2024-02-21T04:05:54;5.50;99.90
25342;DHT22;13298;48.792;9.154;2024-02-21T04:08:20;5.50;99.90
25342;DHT22;13298;48.792;9.154;2024-02-21T04:10:46;5.50;99.90
25342;DHT22;13298;48.792;9.154;2024-02-21T04:13:12;5.50;99.90
25342;DHT22;13298;48.792;9.154;2024-02-21T04:15:38;5.50;99.90
25342;DHT22;13298;48.792;9.154;2024-02-21T04:18:03;5.40;99.90
25342;DHT22;13298;48.792;9.154;2024-02-21T04:20:29;5.40;99.90
25342;DHT22;13298;48.792;9.154;2024-02-21T04:22:55;5.20;99.90
25342;DHT22;13298;48.792;9.154;2024-02-21T04:25:21;5.20;99.90
25342;DHT22;13298;48.792;9.154;2024-02-21T04:27:47;5.10;99.90
25342;DHT22;13298;48.792;9.154;2024-02-21T04:30:13;5.10;99.90
25342;DHT22;13298;48.792;9.154;2024-02-21T04:32:39;4.90;99.90
25342;DHT22;13298;48.792;9.154;2024-02-21T04:35:05;4.90;99.90
25342;DHT22;13298;48.792;9.154;2024-02-21T04:37:30;4.90;99.90
25342;DHT22;13298;48.792;9.154;2024-02-21T04:39:56;4.90;99.90
25342;DHT22;13298;48.792;9.154;2024-02-21T04:42:22;4.80;99.90
25342;DHT22;13298;48.792;9.154;2024-02-21T04:44:48;4.90;99.90
25342;DHT22;13298;48.792;9.154;2024-02-21T04:47:13;4.90;99.90
25342;DHT22;13298;48.792;9.154;2024-02-21T04:49:39;4.90;99.90
25342;DHT22;13298;48.792;9.154;2024-02-21T04:52:05;5.00;99.90
25342;DHT22;13298;48.792;9.154;2024-02-21T04:54:31;4.90;99.90
25342;DHT22;13298;48.792;9.154;2024-02-21T04:56:56;4.90;99.90
25342;DHT22;13298;48.792;9.154;2024-02-21T04:59:22;4.90;99.90
25342;DHT22;13298;48.792;9.154;2024-02-21T05:01:48;4.80;99.90
25342;DHT22;13298;48.792;9.154;2024-02-21T05:04:13;4.70;99.90
25342;DHT22;13298;48.792;9.154;2024-02-21T05:06:42;4.70;99.90
25342;DHT22;13298;48.792;9.154;2024-02-21T05:09:09;4.70;99.90
25342;DHT22;13298;48.792;9.154;2024-02-21T05:11:36;4.60;99.90
25342;DHT22;13298;48.792;9.154;2024-02-21T05:14:03;4.60;99.90
25342;DHT22;13298;48.792;9.154;2024-02-21T05:16:29;4.60;99.90
25342;DHT22;13298;48.792;9.154;2024-02-21T05:18:55;4.60;99.90
25342;DHT22;13298;48.792;9.154;2024-02-21T05:21:23;4.60;99.90
25342;DHT22;13298;48.792;9.154;2024-02-21T05:23:53;4.60;99.90
25342;DHT22;13298;48.792;9.154;2024-02-21T05:26:23;4.60;99.90
25342;DHT22;13298;48.792;9.154;2024-02-21T05:28:50;4.70;99.90
25342;DHT22;13298;48.792;9.154;2024-02-21T05:31:17;4.70;99.90
25342;DHT22;13298;48.792;9.154;2024-02-21T05:33:43;4.70;99.90
25342;DHT22;13298;48.792;9.154;2024-02-21T05:36:10;4.70;99.90
25342;DHT22;13298;48.792;9.154;2024-02-21T05:38:36;4.80;99.90
25342;DHT22;13298;48.792;9.154;2024-02-21T05:41:02;4.80;99.90
25342;DHT22;13298;48.792;9.154;2024-02-21T05:43:28;4.80;99.90
25342;DHT22;13298;48.792;9.154;2024-02-21T05:45:54;4.80;99.90
25342;DHT22;13298;48.792;9.154;2024-02-21T05:48:20;4.80;99.90
25342;DHT22;13298;48.792;9.154;2024-02-21T05:50:47;4.80;99.90
25342;DHT22;13298;48.792;9.154;2024-02-21T05:53:12;4.90;99.90
25342;DHT22;13298;48.792;9.154;2024-02-21T05:55:38;4.90;99.90
25342;DHT22;13298;48.792;9.154;2024-02-21T05:58:04;4.80;99.90
25342;DHT22;13298;48.792;9.154;2024-02-21T06:00:31;4.80;99.90
25342;DHT22;13298;48.792;9.154;2024-02-21T06:02:58;4.70;99.90
25342;DHT22;13298;48.792;9.154;2024-02-21T06:05:23;4.60;99.90
25342;DHT22;13298;48.792;9.154;2024-02-21T06:07:49;4.60;99.90
25342;DHT22;13298;48.792;9.154;2024-02-21T06:10:15;4.50;99.90
25342;DHT22;13298;48.792;9.154;2024-02-21T06:12:41;4.40;99.90
25342;DHT22;13298;48.792;9.154;2024-02-21T06:15:07;4.40;99.90
25342;DHT22;13298;48.792;9.154;2024-02-21T06:17:33;4.30;99.90
25342;DHT22;13298;48.792;9.154;2024-02-21T06:19:59;4.20;99.90
25342;DHT22;13298;48.792;9.154;2024-02-21T06:22:24;4.20;99.90
25342;DHT22;13298;48.792;9.154;2024-02-21T06:24:50;4.20;99.90
25342;DHT22;13298;48.792;9.154;2024-02-21T06:27:16;4.20;99.90
25342;DHT22;13298;48.792;9.154;2024-02-21T06:29:42;4.10;99.90
25342;DHT22;13298;48.792;9.154;2024-02-21T06:32:08;4.10;99.90
25342;DHT22;13298;48.792;9.154;2024-02-21T06:34:34;4.10;99.90
25342;DHT22;13298;48.792;9.154;2024-02-21T06:37:00;4.10;99.90
25342;DHT22;13298;48.792;9.154;2024-02-21T06:39:25;4.10;99.90
25342;DHT22;13298;48.792;9.154;2024-02-21T06:41:51;4.10;99.90
25342;DHT22;13298;48.792;9.154;2024-02-21T06:44:19;4.10;99.90
25342;DHT22;13298;48.792;9.154;2024-02-21T06:46:45;4.20;99.90
25342;DHT22;13298;48.792;9.154;2024-02-21T06:49:10;4.20;99.90
25342;DHT22;13298;48.792;9.154;2024-02-21T06:51:44;4.30;99.90
25342;DHT22;13298;48.792;9.154;2024-02-21T06:54:10;4.40;99.90
25342;DHT22;13298;48.792;9.154;2024-02-21T06:56:36;4.40;99.90
25342;DHT22;13298;48.792;9.154;2024-02-21T06:59:03;4.50;99.90
25342;DHT22;13298;48.792;9.154;2024-02-21T07:01:29;4.50;99.90
25342;DHT22;13298;48.792;9.154;2024-02-21T07:03:56;4.60;99.90
25342;DHT22;13298;48.792;9.154;2024-02-21T07:06:22;4.60;99.90
25342;DHT22;13298;48.792;9.154;2024-02-21T07:08:47;4.70;99.90
25342;DHT22;13298;48.792;9.154;2024-02-21T07:11:13;4.70;99.90
25342;DHT22;13298;48.792;9.154;2024-02-21T07:13:39;4.70;99.90
25342;DHT22;13298;48.792;9.154;2024-02-21T07:16:06;4.80;99.90
25342;DHT22;13298;48.792;9.154;2024-02-21T07:18:32;4.90;99.90
25342;DHT22;13298;48.792;9.154;2024-02-21T07:20:57;5.00;99.90
25342;DHT22;13298;48.792;9.154;2024-02-21T07:23:24;5.10;99.90
25342;DHT22;13298;48.792;9.154;2024-02-21T07:25:50;5.20;99.90
25342;DHT22;13298;48.792;9.154;2024-02-21T07:28:15;5.30;99.90
25342;DHT22;13298;48.792;9.154;2024-02-21T07:30:42;5.50;99.90
25342;DHT22;13298;48.792;9.154;2024-02-21T07:33:08;5.60;99.90
25342;DHT22;13298;48.792;9.154;2024-02-21T07:35:34;5.70;99.90
25342;DHT22;13298;48.792;9.154;2024-02-21T07:38:06;5.90;99.90
25342;DHT22;13298;48.792;9.154;2024-02-21T07:40:32;6.00;99.90
25342;DHT22;13298;48.792;9.154;2024-02-21T07:42:58;6.20;99.90
25342;DHT22;13298;48.792;9.154;2024-02-21T07:45:23;6.30;99.90
25342;DHT22;13298;48.792;9.154;2024-02-21T07:47:50;6.40;99.90
25342;DHT22;13298;48.792;9.154;2024-02-21T07:50:16;6.50;99.90
25342;DHT22;13298;48.792;9.154;2024-02-21T07:52:42;6.60;99.90
25342;DHT22;13298;48.792;9.154;2024-02-21T07:55:08;6.80;99.90
25342;DHT22;13298;48.792;9.154;2024-02-21T07:57:36;6.90;99.90
25342;DHT22;13298;48.792;9.154;2024-02-21T08:00:02;7.10;99.90
25342;DHT22;13298;48.792;9.154;2024-02-21T08:02:29;7.10;99.90
25342;DHT22;13298;48.792;9.154;2024-02-21T08:04:55;7.20;99.90
25342;DHT22;13298;48.792;9.154;2024-02-21T08:07:20;7.40;99.90
25342;DHT22;13298;48.792;9.154;2024-02-21T08:09:46;7.40;99.90
25342;DHT22;13298;48.792;9.154;2024-02-21T08:12:12;7.50;99.90
25342;DHT22;13298;48.792;9.154;2024-02-21T08:14:37;7.60;99.90
25342;DHT22;13298;48.792;9.154;2024-02-21T08:17:03;7.70;99.90
25342;DHT22;13298;48.792;9.154;2024-02-21T08:19:29;7.80;99.90
25342;DHT22;13298;48.792;9.154;2024-02-21T08:21:55;7.80;99.90
25342;DHT22;13298;48.792;9.154;2024-02-21T08:24:21;7.90;99.90
25342;DHT22;13298;48.792;9.154;2024-02-21T08:26:48;8.00;99.90
25342;DHT22;13298;48.792;9.154;2024-02-21T08:29:13;8.10;99.90
25342;DHT22;13298;48.792;9.154;2024-02-21T08:31:39;8.20;99.90
25342;DHT22;13298;48.792;9.154;2024-02-21T08:34:05;8.40;99.90
25342;DHT22;13298;48.792;9.154;2024-02-21T08:36:32;8.50;99.90
25342;DHT22;13298;48.792;9.154;2024-02-21T08:38:59;8.60;99.90
25342;DHT22;13298;48.792;9.154;2024-02-21T08:41:25;8.70;99.90
25342;DHT22;13298;48.792;9.154;2024-02-21T08:43:52;8.80;99.90
25342;DHT22;13298;48.792;9.154;2024-02-21T08:46:22;9.00;99.90
25342;DHT22;13298;48.792;9.154;2024-02-21T08:48:50;9.10;99.90
25342;DHT22;13298;48.792;9.154;2024-02-21T08:51:19;9.20;99.90
25342;DHT22;13298;48.792;9.154;2024-02-21T08:53:48;9.20;99.90
25342;DHT22;13298;48.792;9.154;2024-02-21T08:56:15;9.40;99.90
25342;DHT22;13298;48.792;9.154;2024-02-21T08:58:41;9.50;99.90
25342;DHT22;13298;48.792;9.154;2024-02-21T09:01:07;9.50;99.90
25342;DHT22;13298;48.792;9.154;2024-02-21T09:03:39;9.60;99.90
25342;DHT22;13298;48.792;9.154;2024-02-21T09:06:05;9.70;99.90
25342;DHT22;13298;48.792;9.154;2024-02-21T09:08:32;9.80;99.90
25342;DHT22;13298;48.792;9.154;2024-02-21T09:10:59;9.80;99.90
25342;DHT22;13298;48.792;9.154;2024-02-21T09:13:25;9.90;99.90
25342;DHT22;13298;48.792;9.154;2024-02-21T09:15:50;9.90;99.90
25342;DHT22;13298;48.792;9.154;2024-02-21T09:18:16;9.90;99.90
25342;DHT22;13298;48.792;9.154;2024-02-21T09:20:42;9.90;99.90
25342;DHT22;13298;48.792;9.154;2024-02-21T09:23:08;9.90;99.90
25342;DHT22;13298;48.792;9.154;2024-02-21T09:25:34;9.90;99.90
25342;DHT22;13298;48.792;9.154;2024-02-21T09:28:01;9.90;99.90
25342;DHT22;13298;48.792;9.154;2024-02-21T09:30:28;9.90;99.90
25342;DHT22;13298;48.792;9.154;2024-02-21T09:32:54;9.90;99.90
25342;DHT22;13298;48.792;9.154;2024-02-21T09:35:19;9.90;99.90
25342;DHT22;13298;48.792;9.154;2024-02-21T09:37:48;9.90;99.90
25342;DHT22;13298;48.792;9.154;2024-02-21T09:40:15;9.90;99.90
25342;DHT22;13298;48.792;9.154;2024-02-21T09:42:44;10.00;99.90
25342;DHT22;13298;48.792;9.154;2024-02-21T09:45:21;10.00;99.90
25342;DHT22;13298;48.792;9.154;2024-02-21T09:50:45;10.00;99.90
25342;DHT22;13298;48.792;9.154;2024-02-21T09:53:13;10.10;99.90
25342;DHT22;13298;48.792;9.154;2024-02-21T09:55:39;10.10;99.90
25342;DHT22;13298;48.792;9.154;2024-02-21T09:58:07;10.10;99.90
25342;DHT22;13298;48.792;9.154;2024-02-21T10:00:35;10.10;99.90
25342;DHT22;13298;48.792;9.154;2024-02-21T10:03:01;10.10;99.90
25342;DHT22;13298;48.792;9.154;2024-02-21T10:05:26;10.10;99.90
25342;DHT22;13298;48.792;9.154;2024-02-21T10:07:52;10.30;99.90
25342;DHT22;13298;48.792;9.154;2024-02-21T10:10:20;10.50;99.90
25342;DHT22;13298;48.792;9.154;2024-02-21T10:12:51;10.60;99.90
25342;DHT22;13298;48.792;9.154;2024-02-21T10:15:21;10.70;99.90
25342;DHT22;13298;48.792;9.154;2024-02-21T10:17:48;10.80;99.90
25342;DHT22;13298;48.792;9.154;2024-02-21T10:20:13;11.00;99.90
25342;DHT22;13298;48.792;9.154;2024-02-21T10:22:40;11.10;99.90
25342;DHT22;13298;48.792;9.154;2024-02-21T10:25:09;11.00;99.90
25342;DHT22;13298;48.792;9.154;2024-02-21T10:27:37;11.00;99.90
25342;DHT22;13298;48.792;9.154;2024-02-21T10:30:05;11.10;99.90
25342;DHT22;13298;48.792;9.154;2024-02-21T10:32:32;11.20;99.90
25342;DHT22;13298;48.792;9.154;2024-02-21T10:35:04;11.30;99.90
25342;DHT22;13298;48.792;9.154;2024-02-21T10:37:30;11.40;99.90
25342;DHT22;13298;48.792;9.154;2024-02-21T10:40:00;11.50;99.90
25342;DHT22;13298;48.792;9.154;2024-02-21T10:42:29;11.50;99.90
25342;DHT22;13298;48.792;9.154;2024-02-21T10:45:01;11.60;99.90
25342;DHT22;13298;48.792;9.154;2024-02-21T10:47:32;11.60;99.90
25342;DHT22;13298;48.792;9.154;2024-02-21T10:50:04;11.60;99.90
25342;DHT22;13298;48.792;9.154;2024-02-21T10:52:47;11.60;99.90
25342;DHT22;13298;48.792;9.154;2024-02-21T10:55:25;11.60;99.90
25342;DHT22;13298;48.792;9.154;2024-02-21T10:57:53;11.80;99.90
25342;DHT22;13298;48.792;9.154;2024-02-21T11:00:19;11.90;99.90
25342;DHT22;13298;48.792;9.154;2024-02-21T11:02:47;12.00;99.90
25342;DHT22;13298;48.792;9.154;2024-02-21T11:05:13;12.10;99.90
25342;DHT22;13298;48.792;9.154;2024-02-21T11:07:40;12.20;99.90
25342;DHT22;13298;48.792;9.154;2024-02-21T11:10:20;12.30;99.90
25342;DHT22;13298;48.792;9.154;2024-02-21T11:12:48;12.40;99.90
25342;DHT22;13298;48.792;9.154;2024-02-21T11:15:15;12.50;99.90
25342;DHT22;13298;48.792;9.154;2024-02-21T11:17:40;12.50;99.90
25342;DHT22;13298;48.792;9.154;2024-02-21T11:20:13;12.50;99.90
25342;DHT22;13298;48.792;9.154;2024-02-21T11:22:42;12.60;99.90
25342;DHT22;13298;48.792;9.154;2024-02-21T11:25:08;12.70;99.90
25342;DHT22;13298;48.792;9.154;2024-02-21T11:27:36;12.80;99.90
25342;DHT22;13298;48.792;9.154;2024-02-21T11:30:04;12.90;99.90
25342;DHT22;13298;48.792;9.154;2024-02-21T11:32:31;13.00;99.90
25342;DHT22;13298;48.792;9.154;2024-02-21T11:35:04;13.10;99.90
25342;DHT22;13298;48.792;9.154;2024-02-21T11:37:35;13.10;99.90
25342;DHT22;13298;48.792;9.154;2024-02-21T11:40:03;13.10;99.90
25342;DHT22;13298;48.792;9.154;2024-02-21T11:42:29;13.20;99.90
25342;DHT22;13298;48.792;9.154;2024-02-21T11:44:59;13.30;99.90
25342;DHT22;13298;48.792;9.154;2024-02-21T11:47:27;13.30;99.90
25342;DHT22;13298;48.792;9.154;2024-02-21T11:49:54;13.20;99.90
25342;DHT22;13298;48.792;9.154;2024-02-21T11:52:26;13.20;99.90
25342;DHT22;13298;48.792;9.154;2024-02-21T11:54:52;13.30;99.90
25342;DHT22;13298;48.792;9.154;2024-02-21T11:57:20;13.20;99.90
25342;DHT22;13298;48.792;9.154;2024-02-21T11:59:46;13.30;99.90
25342;DHT22;13298;48.792;9.154;2024-02-21T12:02:12;13.20;98.00
25342;DHT22;13298;48.792;9.154;2024-02-21T12:04:40;13.10;98.20
25342;DHT22;13298;48.792;9.154;2024-02-21T12:07:07;13.10;99.10
25342;DHT22;13298;48.792;9.154;2024-02-21T12:09:34;13.20;99.40
25342;DHT22;13298;48.792;9.154;2024-02-21T12:12:04;13.20;98.30
25342;DHT22;13298;48.792;9.154;2024-02-21T12:14:32;13.20;98.70
25342;DHT22;13298;48.792;9.154;2024-02-21T12:16:59;13.20;98.10
25342;DHT22;13298;48.792;9.154;2024-02-21T12:19:26;13.30;97.70
25342;DHT22;13298;48.792;9.154;2024-02-21T12:21:54;13.40;98.50
25342;DHT22;13298;48.792;9.154;2024-02-21T12:24:27;13.40;99.00
25342;DHT22;13298;48.792;9.154;2024-02-21T12:26:54;13.50;99.20
25342;DHT22;13298;48.792;9.154;2024-02-21T12:29:22;13.50;97.10
25342;DHT22;13298;48.792;9.154;2024-02-21T12:31:50;13.40;97.70
25342;DHT22;13298;48.792;9.154;2024-02-21T12:34:16;13.30;97.50
25342;DHT22;13298;48.792;9.154;2024-02-21T12:36:43;13.30;97.80
25342;DHT22;13298;48.792;9.154;2024-02-21T12:39:10;13.40;98.00
25342;DHT22;13298;48.792;9.154;2024-02-21T12:41:37;13.50;98.00
25342;DHT22;13298;48.792;9.154;2024-02-21T12:44:10;13.50;97.50
25342;DHT22;13298;48.792;9.154;2024-02-21T12:46:40;13.60;97.80
25342;DHT22;13298;48.792;9.154;2024-02-21T12:49:05;13.60;96.70
25342;DHT22;13298;48.792;9.154;2024-02-21T12:51:33;13.60;97.30
25342;DHT22;13298;48.792;9.154;2024-02-21T12:53:59;13.70;96.90
25342;DHT22;13298;48.792;9.154;2024-02-21T12:56:25;13.60;97.30
25342;DHT22;13298;48.792;9.154;2024-02-21T12:58:52;13.70;96.70
25342;DHT22;13298;48.792;9.154;2024-02-21T13:01:18;13.70;97.00
25342;DHT22;13298;48.792;9.154;2024-02-21T13:03:44;13.80;97.00
25342;DHT22;13298;48.792;9.154;2024-02-21T13:06:12;13.80;95.90
25342;DHT22;13298;48.792;9.154;2024-02-21T13:08:38;13.80;96.70
25342;DHT22;13298;48.792;9.154;2024-02-21T13:11:05;13.80;95.40
25342;DHT22;13298;48.792;9.154;2024-02-21T13:13:31;13.80;96.00
25342;DHT22;13298;48.792;9.154;2024-02-21T13:15:57;13.80;95.80
25342;DHT22;13298;48.792;9.154;2024-02-21T13:18:23;13.80;95.80
25342;DHT22;13298;48.792;9.154;2024-02-21T13:20:49;13.90;96.20
25342;DHT22;13298;48.792;9.154;2024-02-21T13:23:15;13.90;96.30
25342;DHT22;13298;48.792;9.154;2024-02-21T13:25:41;14.00;95.60
25342;DHT22;13298;48.792;9.154;2024-02-21T13:28:07;13.90;94.70
25342;DHT22;13298;48.792;9.154;2024-02-21T13:30:34;13.80;95.80
25342;DHT22;13298;48.792;9.154;2024-02-21T13:32:59;13.80;96.20
25342;DHT22;13298;48.792;9.154;2024-02-21T13:35:25;13.90;95.80
25342;DHT22;13298;48.792;9.154;2024-02-21T13:37:51;13.90;95.00
25342;DHT22;13298;48.792;9.154;2024-02-21T13:40:16;13.90;94.80
25342;DHT22;13298;48.792;9.154;2024-02-21T13:42:42;13.90;94.40
25342;DHT22;13298;48.792;9.154;2024-02-21T13:45:09;13.90;94.30
25342;DHT22;13298;48.792;9.154;2024-02-21T13:47:34;13.80;93.40
25342;DHT22;13298;48.792;9.154;2024-02-21T13:50:02;13.70;94.60
25342;DHT22;13298;48.792;9.154;2024-02-21T13:52:30;13.70;95.50
25342;DHT22;13298;48.792;9.154;2024-02-21T13:54:56;13.70;95.80
25342;DHT22;13298;48.792;9.154;2024-02-21T13:57:22;13.70;96.60
25342;DHT22;13298;48.792;9.154;2024-02-21T13:59:48;13.70;95.50
25342;DHT22;13298;48.792;9.154;2024-02-21T14:02:14;13.70;94.80
25342;DHT22;13298;48.792;9.154;2024-02-21T14:04:40;13.70;94.10
25342;DHT22;13298;48.792;9.154;2024-02-21T14:07:05;13.80;94.00
25342;DHT22;13298;48.792;9.154;2024-02-21T14:09:31;13.80;93.90
25342;DHT22;13298;48.792;9.154;2024-02-21T14:11:58;13.80;93.50
25342;DHT22;13298;48.792;9.154;2024-02-21T14:14:24;13.80;93.70
25342;DHT22;13298;48.792;9.154;2024-02-21T14:16:50;13.80;92.50
25342;DHT22;13298;48.792;9.154;2024-02-21T14:19:15;13.70;93.30
25342;DHT22;13298;48.792;9.154;2024-02-21T14:21:41;13.60;93.20
25342;DHT22;13298;48.792;9.154;2024-02-21T14:24:07;13.60;92.90
25342;DHT22;13298;48.792;9.154;2024-02-21T14:26:33;13.50;93.20
25342;DHT22;13298;48.792;9.154;2024-02-21T14:29:01;13.50;91.80
25342;DHT22;13298;48.792;9.154;2024-02-21T14:31:28;13.50;92.10
25342;DHT22;13298;48.792;9.154;2024-02-21T14:33:56;13.40;91.80
25342;DHT22;13298;48.792;9.154;2024-02-21T14:36:22;13.40;92.40
25342;DHT22;13298;48.792;9.154;2024-02-21T14:38:49;13.40;92.50
25342;DHT22;13298;48.792;9.154;2024-02-21T14:41:17;13.40;92.60
25342;DHT22;13298;48.792;9.154;2024-02-21T14:43:43;13.40;92.30
25342;DHT22;13298;48.792;9.154;2024-02-21T14:46:09;13.40;91.80
25342;DHT22;13298;48.792;9.154;2024-02-21T14:48:34;13.40;92.40
25342;DHT22;13298;48.792;9.154;2024-02-21T14:51:01;13.40;92.90
25342;DHT22;13298;48.792;9.154;2024-02-21T14:53:27;13.40;92.60
25342;DHT22;13298;48.792;9.154;2024-02-21T14:55:54;13.40;92.40
25342;DHT22;13298;48.792;9.154;2024-02-21T14:58:21;13.40;92.00
25342;DHT22;13298;48.792;9.154;2024-02-21T15:00:46;13.30;92.20
25342;DHT22;13298;48.792;9.154;2024-02-21T15:03:13;13.20;92.20
25342;DHT22;13298;48.792;9.154;2024-02-21T15:05:45;13.10;93.10
25342;DHT22;13298;48.792;9.154;2024-02-21T15:08:11;13.10;92.20
25342;DHT22;13298;48.792;9.154;2024-02-21T15:10:37;13.00;92.90
25342;DHT22;13298;48.792;9.154;2024-02-21T15:13:03;13.00;92.60
25342;DHT22;13298;48.792;9.154;2024-02-21T15:15:29;12.90;92.20
25342;DHT22;13298;48.792;9.154;2024-02-21T15:17:55;12.90;92.70
25342;DHT22;13298;48.792;9.154;2024-02-21T15:20:21;12.90;92.00
25342;DHT22;13298;48.792;9.154;2024-02-21T15:22:47;12.80;92.60
25342;DHT22;13298;48.792;9.154;2024-02-21T15:25:14;12.70;93.40
25342;DHT22;13298;48.792;9.154;2024-02-21T15:27:43;12.60;93.50
25342;DHT22;13298;48.792;9.154;2024-02-21T15:30:13;12.60;93.70
25342;DHT22;13298;48.792;9.154;2024-02-21T15:32:42;12.50;94.00
25342;DHT22;13298;48.792;9.154;2024-02-21T15:35:09;12.50;93.90
25342;DHT22;13298;48.792;9.154;2024-02-21T15:37:35;12.50;94.20
25342;DHT22;13298;48.792;9.154;2024-02-21T15:40:02;12.40;94.40